sensor_id;sensor_type;location;lat;lon;timestamp;pressure;altitude;pressure_sealevel;temperature;humidity
7052;BME280;3567;52.444;13.556;2023-04-07T00:00:49;101649.25;;;-0.26;92.96
7052;BME280;3567;52.444;13.556;2023-04-07T00:03:15;101649.25;;;-0.26;93.21
7052;BME280;3567;52.444;13.556;2023-04-07T00:05:40;101647.44;;;-0.25;93.64
7052;BME280;3567;52.444;13.556;2023-04-07T00:08:05;101649.25;;;-0.26;92.38
7052;BME280;3567;52.444;13.556;2023-04-07T00:10:31;101649.25;;;-0.26;93.14
7052;BME280;3567;52.444;13.556;2023-04-07T00:12:57;101641.59;;;-0.29;92.60
7052;BME280;3567;52.444;13.556;2023-04-07T00:15:22;101640.09;;;-0.32;93.22
7052;BME280;3567;52.444;13.556;2023-04-07T00:17:47;101640.50;;;-0.36;93.13
7052;BME280;3567;52.444;13.556;2023-04-07T00:20:13;101634.50;;;-0.38;94.24
7052;BME280;3567;52.444;13.556;2023-04-07T00:22:38;101641.56;;;-0.39;93.48
7052;BME280;3567;52.444;13.556;2023-04-07T00:25:04;101640.06;;;-0.41;92.87
7052;BME280;3567;52.444;13.556;2023-04-07T00:27:30;101634.81;;;-0.41;93.14
7052;BME280;3567;52.444;13.556;2023-04-07T00:29:56;101635.78;;;-0.42;93.15
7052;BME280;3567;52.444;13.556;2023-04-07T00:32:21;101636.72;;;-0.43;93.92
7052;BME280;3567;52.444;13.556;2023-04-07T00:34:47;101633.66;;;-0.48;94.48
7052;BME280;3567;52.444;13.556;2023-04-07T00:37:12;101623.56;;;-0.53;93.50
7052;BME280;3567;52.444;13.556;2023-04-07T00:39:37;101630.03;;;-0.57;94.96
7052;BME280;3567;52.444;13.556;2023-04-07T00:42:03;101639.84;;;-0.59;94.88
7052;BME280;3567;52.444;13.556;2023-04-07T00:44:29;101632.09;;;-0.61;93.75
7052;BME280;3567;52.444;13.556;2023-04-07T00:46:55;101621.56;;;-0.61;94.70
7052;BME280;3567;52.444;13.556;2023-04-07T00:49:20;101625.19;;;-0.62;95.66
7052;BME280;3567;52.444;13.556;2023-04-07T00:51:46;101622.69;;;-0.63;94.79
7052;BME280;3567;52.444;13.556;2023-04-07T00:54:11;101625.19;;;-0.62;95.34
7052;BME280;3567;52.444;13.556;2023-04-07T00:56:37;101625.19;;;-0.62;94.90
7052;BME280;3567;52.444;13.556;2023-04-07T00:59:05;101613.81;;;-0.62;95.96
7052;BME280;3567;52.444;13.556;2023-04-07T01:01:47;101612.03;;;-0.62;95.40
7052;BME280;3567;52.444;13.556;2023-04-07T01:06:47;101602.72;;;-0.66;93.84
7052;BME280;3567;52.444;13.556;2023-04-07T01:09:18;101612.41;;;-0.66;95.62
7052;BME280;3567;52.444;13.556;2023-04-07T01:11:54;101604.38;;;-0.65;93.63
7052;BME280;3567;52.444;13.556;2023-04-07T01:14:24;101599.41;;;-0.68;93.79
7052;BME280;3567;52.444;13.556;2023-04-07T01:16:54;101596.06;;;-0.70;95.29
7052;BME280;3567;52.444;13.556;2023-04-07T01:19:39;101595.22;;;-0.70;95.39
7052;BME280;3567;52.444;13.556;2023-04-07T01:22:13;101603.25;;;-0.72;93.82
7052;BME280;3567;52.444;13.556;2023-04-07T01:25:05;101600.50;;;-0.70;96.00
7052;BME280;3567;52.444;13.556;2023-04-07T01:27:46;101598.97;;;-0.73;94.95
7052;BME280;3567;52.444;13.556;2023-04-07T01:30:14;101597.44;;;-0.75;94.93
7052;BME280;3567;52.444;13.556;2023-04-07T01:32:42;101592.31;;;-0.77;95.00
7052;BME280;3567;52.444;13.556;2023-04-07T01:35:11;101592.44;;;-0.78;94.94
7052;BME280;3567;52.444;13.556;2023-04-07T01:37:38;101590.78;;;-0.80;96.33
7052;BME280;3567;52.444;13.556;2023-04-07T01:40:06;101594.38;;;-0.81;96.33
7052;BME280;3567;52.444;13.556;2023-04-07T01:42:33;101591.88;;;-0.82;95.23
7052;BME280;3567;52.444;13.556;2023-04-07T01:44:59;101588.56;;;-0.84;94.30
7052;BME280;3567;52.444;13.556;2023-04-07T01:47:27;101591.19;;;-0.84;95.38
7052;BME280;3567;52.444;13.556;2023-04-07T01:49:57;101598.25;;;-0.85;95.74
7052;BME280;3567;52.444;13.556;2023-04-07T01:52:25;101597.41;;;-0.85;94.52
7052;BME280;3567;52.444;13.556;2023-04-07T01:54:52;101590.75;;;-0.89;94.26
7052;BME280;3567;52.444;13.556;2023-04-07T01:57:17;101591.72;;;-0.90;95.26
7052;BME280;3567;52.444;13.556;2023-04-07T01:59:43;101582.88;;;-0.89;95.28
7052;BME280;3567;52.444;13.556;2023-04-07T02:02:08;101583.84;;;-0.90;94.27
7052;BME280;3567;52.444;13.556;2023-04-07T02:04:37;101588.22;;;-0.91;95.02
7052;BME280;3567;52.444;13.556;2023-04-07T02:07:15;101589.09;;;-0.90;95.26
7052;BME280;3567;52.444;13.556;2023-04-07T02:09:45;101588.38;;;-0.92;94.46
7052;BME280;3567;52.444;13.556;2023-04-07T02:12:13;101580.78;;;-0.95;95.40
7052;BME280;3567;52.444;13.556;2023-04-07T02:14:39;101579.09;;;-0.96;95.24
7052;BME280;3567;52.444;13.556;2023-04-07T02:17:05;101579.09;;;-0.96;96.09
7052;BME280;3567;52.444;13.556;2023-04-07T02:19:32;101569.41;;;-0.96;94.95
7052;BME280;3567;52.444;13.556;2023-04-07T02:22:02;101566.91;;;-0.97;95.48
7052;BME280;3567;52.444;13.556;2023-04-07T02:24:27;101579.38;;;-0.99;96.45
7052;BME280;3567;52.444;13.556;2023-04-07T02:26:53;101570.50;;;-0.98;96.45
7052;BME280;3567;52.444;13.556;2023-04-07T02:29:18;101569.66;;;-0.99;95.36
7052;BME280;3567;52.444;13.556;2023-04-07T02:31:44;101579.38;;;-0.99;96.48
7052;BME280;3567;52.444;13.556;2023-04-07T02:34:09;101574.94;;;-0.99;97.14
7052;BME280;3567;52.444;13.556;2023-04-07T02:36:35;101563.59;;;-0.99;97.04
7052;BME280;3567;52.444;13.556;2023-04-07T02:39:00;101566.22;;;-0.99;95.40
7052;BME280;3567;52.444;13.556;2023-04-07T02:41:25;101577.69;;;-1.00;95.91
7052;BME280;3567;52.444;13.556;2023-04-07T02:43:51;101569.81;;;-1.00;97.50
7052;BME280;3567;52.444;13.556;2023-04-07T02:46:17;101563.59;;;-0.99;96.97
7052;BME280;3567;52.444;13.556;2023-04-07T02:48:42;101569.66;;;-0.99;96.07
7052;BME280;3567;52.444;13.556;2023-04-07T02:51:08;101563.59;;;-0.99;96.41
7052;BME280;3567;52.444;13.556;2023-04-07T02:53:33;101569.81;;;-1.00;97.42
7052;BME280;3567;52.444;13.556;2023-04-07T02:55:59;101567.03;;;-0.99;95.55
7052;BME280;3567;52.444;13.556;2023-04-07T02:58:24;101568.56;;;-0.96;96.22
7052;BME280;3567;52.444;13.556;2023-04-07T03:00:49;101565.81;;;-0.95;96.83
7052;BME280;3567;52.444;13.556;2023-04-07T03:03:15;101562.91;;;-0.92;97.09
7052;BME280;3567;52.444;13.556;2023-04-07T03:05:40;101569.72;;;-0.89;97.92
7052;BME280;3567;52.444;13.556;2023-04-07T03:08:06;101563.34;;;-0.87;97.14
7052;BME280;3567;52.444;13.556;2023-04-07T03:10:31;101567.22;;;-0.81;97.42
7052;BME280;3567;52.444;13.556;2023-04-07T03:12:57;101573.91;;;-0.77;96.36
7052;BME280;3567;52.444;13.556;2023-04-07T03:15:22;101556.88;;;-0.73;97.42
7052;BME280;3567;52.444;13.556;2023-04-07T03:17:47;101559.22;;;-0.70;96.88
7052;BME280;3567;52.444;13.556;2023-04-07T03:20:13;101557.03;;;-0.65;97.15
7052;BME280;3567;52.444;13.556;2023-04-07T03:22:38;101552.47;;;-0.63;98.06
7052;BME280;3567;52.444;13.556;2023-04-07T03:25:04;101554.72;;;-0.58;95.82
7052;BME280;3567;52.444;13.556;2023-04-07T03:27:29;101556.22;;;-0.56;97.80
7052;BME280;3567;52.444;13.556;2023-04-07T03:29:55;101550.69;;;-0.52;96.74
7052;BME280;3567;52.444;13.556;2023-04-07T03:32:20;101554.69;;;-0.48;96.87
7052;BME280;3567;52.444;13.556;2023-04-07T03:34:45;101550.81;;;-0.44;97.84
7052;BME280;3567;52.444;13.556;2023-04-07T03:37:11;101541.84;;;-0.42;96.31
7052;BME280;3567;52.444;13.556;2023-04-07T03:39:36;101553.88;;;-0.39;95.99
7052;BME280;3567;52.444;13.556;2023-04-07T03:42:02;101543.22;;;-0.38;97.14
7052;BME280;3567;52.444;13.556;2023-04-07T03:44:27;101537.00;;;-0.37;95.69
7052;BME280;3567;52.444;13.556;2023-04-07T03:46:53;101538.81;;;-0.37;96.08
7052;BME280;3567;52.444;13.556;2023-04-07T03:49:18;101547.38;;;-0.35;96.27
7052;BME280;3567;52.444;13.556;2023-04-07T03:51:43;101543.78;;;-0.34;96.49
7052;BME280;3567;52.444;13.556;2023-04-07T03:54:09;101537.69;;;-0.35;97.55
7052;BME280;3567;52.444;13.556;2023-04-07T03:56:34;101536.84;;;-0.35;96.61
7052;BME280;3567;52.444;13.556;2023-04-07T03:59:00;101535.06;;;-0.35;96.24
7052;BME280;3567;52.444;13.556;2023-04-07T04:01:25;101544.59;;;-0.34;96.40
7052;BME280;3567;52.444;13.556;2023-04-07T04:03:50;101541.81;;;-0.32;97.70
7052;BME280;3567;52.444;13.556;2023-04-07T04:06:16;101536.44;;;-0.31;97.36
7052;BME280;3567;52.444;13.556;2023-04-07T04:08:41;101531.03;;;-0.29;96.49
7052;BME280;3567;52.444;13.556;2023-04-07T04:11:07;101539.63;;;-0.27;97.74
7052;BME280;3567;52.444;13.556;2023-04-07T04:13:32;101539.34;;;-0.24;97.30
7052;BME280;3567;52.444;13.556;2023-04-07T04:15:57;101540.75;;;-0.20;96.70
7052;BME280;3567;52.444;13.556;2023-04-07T04:18:23;101537.13;;;-0.19;97.81
7052;BME280;3567;52.444;13.556;2023-04-07T04:20:48;101541.41;;;-0.18;96.13
7052;BME280;3567;52.444;13.556;2023-04-07T04:23:14;101546.53;;;-0.16;96.21
7052;BME280;3567;52.444;13.556;2023-04-07T04:25:39;101543.78;;;-0.15;97.13
7052;BME280;3567;52.444;13.556;2023-04-07T04:28:05;101550.72;;;-0.14;97.91
7052;BME280;3567;52.444;13.556;2023-04-07T04:30:30;101543.66;;;-0.13;97.25
7052;BME280;3567;52.444;13.556;2023-04-07T04:32:56;101540.19;;;-0.14;97.21
7052;BME280;3567;52.444;13.556;2023-04-07T04:35:21;101545.16;;;-0.11;96.47
7052;BME280;3567;52.444;13.556;2023-04-07T04:37:47;101547.38;;;-0.06;96.05
7052;BME280;3567;52.444;13.556;2023-04-07T04:40:12;101544.63;;;-0.05;95.75
7052;BME280;3567;52.444;13.556;2023-04-07T04:42:38;101547.94;;;-0.03;96.40
7052;BME280;3567;52.444;13.556;2023-04-07T04:45:04;101547.94;;;-0.03;96.39
7052;BME280;3567;52.444;13.556;2023-04-07T04:47:30;101543.34;;;-0.01;95.76
7052;BME280;3567;52.444;13.556;2023-04-07T04:49:56;101549.31;;;0.02;96.40
7052;BME280;3567;52.444;13.556;2023-04-07T04:52:21;101549.31;;;0.02;96.01
7052;BME280;3567;52.444;13.556;2023-04-07T04:54:47;101551.66;;;0.05;96.09
7052;BME280;3567;52.444;13.556;2023-04-07T04:57:12;101554.19;;;0.06;96.77
7052;BME280;3567;52.444;13.556;2023-04-07T04:59:37;101547.09;;;0.07;96.31
7052;BME280;3567;52.444;13.556;2023-04-07T05:02:04;101559.03;;;0.11;97.40
7052;BME280;3567;52.444;13.556;2023-04-07T05:04:30;101563.03;;;0.15;96.87
7052;BME280;3567;52.444;13.556;2023-04-07T05:06:55;101562.47;;;0.21;95.99
7052;BME280;3567;52.444;13.556;2023-04-07T05:09:21;101557.59;;;0.26;96.41
7052;BME280;3567;52.444;13.556;2023-04-07T05:11:46;101568.56;;;0.31;96.48
7052;BME280;3567;52.444;13.556;2023-04-07T05:14:13;101566.31;;;0.36;96.53
7052;BME280;3567;52.444;13.556;2023-04-07T05:16:38;101556.91;;;0.43;95.28
7052;BME280;3567;52.444;13.556;2023-04-07T05:19:03;101563.41;;;0.49;96.09
7052;BME280;3567;52.444;13.556;2023-04-07T05:21:29;101558.38;;;0.56;95.64
7052;BME280;3567;52.444;13.556;2023-04-07T05:23:54;101559.78;;;0.60;96.72
7052;BME280;3567;52.444;13.556;2023-04-07T05:26:20;101562.50;;;0.68;95.57
7052;BME280;3567;52.444;13.556;2023-04-07T05:28:45;101559.44;;;0.72;95.26
7052;BME280;3567;52.444;13.556;2023-04-07T05:31:11;101558.03;;;0.78;96.01
7052;BME280;3567;52.444;13.556;2023-04-07T05:33:36;101551.91;;;0.87;95.92
7052;BME280;3567;52.444;13.556;2023-04-07T05:36:01;101558.25;;;0.94;94.72
7052;BME280;3567;52.444;13.556;2023-04-07T05:38:27;101554.06;;;1.01;94.63
7052;BME280;3567;52.444;13.556;2023-04-07T05:40:52;101552.66;;;1.07;94.26
7052;BME280;3567;52.444;13.556;2023-04-07T05:43:18;101550.09;;;1.15;95.47
7052;BME280;3567;52.444;13.556;2023-04-07T05:45:43;101554.50;;;1.24;94.46
7052;BME280;3567;52.444;13.556;2023-04-07T05:48:08;101545.81;;;1.32;94.89
7052;BME280;3567;52.444;13.556;2023-04-07T05:50:34;101549.56;;;1.39;94.94
7052;BME280;3567;52.444;13.556;2023-04-07T05:52:59;101545.16;;;1.48;94.11
7052;BME280;3567;52.444;13.556;2023-04-07T05:55:24;101543.44;;;1.56;93.88
7052;BME280;3567;52.444;13.556;2023-04-07T05:57:50;101544.38;;;1.65;93.50
7052;BME280;3567;52.444;13.556;2023-04-07T06:00:16;101543.31;;;1.76;93.36
7052;BME280;3567;52.444;13.556;2023-04-07T06:02:41;101551.00;;;1.87;93.13
7052;BME280;3567;52.444;13.556;2023-04-07T06:05:06;101560.34;;;1.99;93.23
7052;BME280;3567;52.444;13.556;2023-04-07T06:07:32;101560.94;;;2.11;93.02
7052;BME280;3567;52.444;13.556;2023-04-07T06:09:57;101558.06;;;2.22;91.67
7052;BME280;3567;52.444;13.556;2023-04-07T06:12:22;101556.16;;;2.32;90.94
7052;BME280;3567;52.444;13.556;2023-04-07T06:14:54;101562.19;;;2.43;90.80
7052;BME280;3567;52.444;13.556;2023-04-07T06:17:21;101563.91;;;2.52;90.35
7052;BME280;3567;52.444;13.556;2023-04-07T06:19:47;101564.75;;;2.60;90.26
7052;BME280;3567;52.444;13.556;2023-04-07T06:22:12;101572.59;;;2.70;89.52
7052;BME280;3567;52.444;13.556;2023-04-07T06:24:37;101573.47;;;2.79;89.61
7052;BME280;3567;52.444;13.556;2023-04-07T06:27:03;101579.78;;;2.86;88.77
7052;BME280;3567;52.444;13.556;2023-04-07T06:29:29;101575.56;;;2.93;87.92
7052;BME280;3567;52.444;13.556;2023-04-07T06:31:54;101580.22;;;2.99;87.54
7052;BME280;3567;52.444;13.556;2023-04-07T06:34:20;101575.94;;;3.06;87.72
7052;BME280;3567;52.444;13.556;2023-04-07T06:36:46;101574.28;;;3.13;88.02
7052;BME280;3567;52.444;13.556;2023-04-07T06:39:11;101574.50;;;3.20;87.50
7052;BME280;3567;52.444;13.556;2023-04-07T06:41:36;101579.28;;;3.25;86.46
7052;BME280;3567;52.444;13.556;2023-04-07T06:44:03;101581.34;;;3.31;86.00
7052;BME280;3567;52.444;13.556;2023-04-07T06:46:28;101573.56;;;3.37;85.99
7052;BME280;3567;52.444;13.556;2023-04-07T06:48:54;101579.03;;;3.44;85.42
7052;BME280;3567;52.444;13.556;2023-04-07T06:51:20;101579.22;;;3.51;85.15
7052;BME280;3567;52.444;13.556;2023-04-07T06:53:45;101584.38;;;3.60;86.33
7052;BME280;3567;52.444;13.556;2023-04-07T06:56:12;101581.78;;;3.68;85.37
7052;BME280;3567;52.444;13.556;2023-04-07T06:58:38;101583.41;;;3.78;85.85
7052;BME280;3567;52.444;13.556;2023-04-07T07:01:04;101590.22;;;3.88;84.60
7052;BME280;3567;52.444;13.556;2023-04-07T07:03:31;101585.13;;;3.95;83.54
7052;BME280;3567;52.444;13.556;2023-04-07T07:05:59;101588.09;;;4.08;85.55
7052;BME280;3567;52.444;13.556;2023-04-07T07:08:25;101580.63;;;4.20;83.83
7052;BME280;3567;52.444;13.556;2023-04-07T07:10:51;101587.94;;;4.34;84.78
7052;BME280;3567;52.444;13.556;2023-04-07T07:13:18;101587.91;;;4.51;82.93
7052;BME280;3567;52.444;13.556;2023-04-07T07:15:43;101589.75;;;4.58;81.82
7052;BME280;3567;52.444;13.556;2023-04-07T07:18:10;101599.69;;;4.64;81.63
7052;BME280;3567;52.444;13.556;2023-04-07T07:20:35;101596.00;;;4.73;81.44
7052;BME280;3567;52.444;13.556;2023-04-07T07:23:01;101597.31;;;4.86;80.76
7052;BME280;3567;52.444;13.556;2023-04-07T07:25:26;101595.81;;;4.91;80.77
7052;BME280;3567;52.444;13.556;2023-04-07T07:27:52;101595.25;;;5.04;80.66
7052;BME280;3567;52.444;13.556;2023-04-07T07:30:21;101592.94;;;5.09;81.33
7052;BME280;3567;52.444;13.556;2023-04-07T07:32:47;101594.88;;;5.15;80.73
7052;BME280;3567;52.444;13.556;2023-04-07T07:35:13;101593.38;;;5.21;80.47
7052;BME280;3567;52.444;13.556;2023-04-07T07:37:38;101596.19;;;5.28;79.76
7052;BME280;3567;52.444;13.556;2023-04-07T07:40:04;101593.00;;;5.32;80.14
7052;BME280;3567;52.444;13.556;2023-04-07T07:42:30;101595.31;;;5.35;78.96
7052;BME280;3567;52.444;13.556;2023-04-07T07:44:56;101594.09;;;5.46;78.88
7052;BME280;3567;52.444;13.556;2023-04-07T07:47:21;101586.75;;;5.56;77.57
7052;BME280;3567;52.444;13.556;2023-04-07T07:49:47;101588.06;;;5.60;77.32
7052;BME280;3567;52.444;13.556;2023-04-07T07:52:12;101600.53;;;5.60;76.97
7052;BME280;3567;52.444;13.556;2023-04-07T07:54:38;101593.81;;;5.64;76.72
7052;BME280;3567;52.444;13.556;2023-04-07T07:57:03;101592.78;;;5.73;77.43
7052;BME280;3567;52.444;13.556;2023-04-07T07:59:30;101599.34;;;5.85;75.65
7052;BME280;3567;52.444;13.556;2023-04-07T08:01:56;101604.47;;;5.95;74.58
7052;BME280;3567;52.444;13.556;2023-04-07T08:04:21;101591.22;;;6.10;73.42
7052;BME280;3567;52.444;13.556;2023-04-07T08:06:47;101607.69;;;6.13;72.89
7052;BME280;3567;52.444;13.556;2023-04-07T08:09:13;101600.97;;;6.17;73.09
7052;BME280;3567;52.444;13.556;2023-04-07T08:11:39;101599.91;;;6.26;72.83
7052;BME280;3567;52.444;13.556;2023-04-07T08:14:04;101599.84;;;6.35;71.82
7052;BME280;3567;52.444;13.556;2023-04-07T08:16:29;101595.81;;;6.39;70.05
7052;BME280;3567;52.444;13.556;2023-04-07T08:18:55;101597.09;;;6.43;68.97
7052;BME280;3567;52.444;13.556;2023-04-07T08:21:20;101595.47;;;6.42;69.29
7052;BME280;3567;52.444;13.556;2023-04-07T08:23:45;101597.41;;;6.48;68.84
7052;BME280;3567;52.444;13.556;2023-04-07T08:26:11;101586.69;;;6.56;66.32
7052;BME280;3567;52.444;13.556;2023-04-07T08:28:36;101591.28;;;6.62;66.87
7052;BME280;3567;52.444;13.556;2023-04-07T08:31:02;101584.75;;;6.65;65.08
7052;BME280;3567;52.444;13.556;2023-04-07T08:33:27;101594.31;;;6.74;65.43
7052;BME280;3567;52.444;13.556;2023-04-07T08:35:52;101583.13;;;6.78;64.15
7052;BME280;3567;52.444;13.556;2023-04-07T08:38:18;101580.19;;;6.88;63.43
7052;BME280;3567;52.444;13.556;2023-04-07T08:40:43;101582.59;;;6.98;61.08
7052;BME280;3567;52.444;13.556;2023-04-07T08:43:09;101574.97;;;6.95;59.16
7052;BME280;3567;52.444;13.556;2023-04-07T08:45:39;101585.13;;;6.91;59.31
7052;BME280;3567;52.444;13.556;2023-04-07T08:48:16;101584.88;;;6.86;58.50
7052;BME280;3567;52.444;13.556;2023-04-07T08:50:44;101586.25;;;6.82;59.34
7052;BME280;3567;52.444;13.556;2023-04-07T08:53:12;101585.25;;;6.83;57.42
7052;BME280;3567;52.444;13.556;2023-04-07T08:55:39;101591.66;;;6.74;58.16
7052;BME280;3567;52.444;13.556;2023-04-07T08:58:05;101593.22;;;6.68;57.88
7052;BME280;3567;52.444;13.556;2023-04-07T09:00:31;101594.56;;;6.64;58.16
7052;BME280;3567;52.444;13.556;2023-04-07T09:02:56;101601.09;;;6.62;59.29
7052;BME280;3567;52.444;13.556;2023-04-07T09:05:22;101603.47;;;6.56;59.08
7052;BME280;3567;52.444;13.556;2023-04-07T09:07:49;101603.53;;;6.48;58.96
7052;BME280;3567;52.444;13.556;2023-04-07T09:10:15;101609.41;;;6.44;60.00
7052;BME280;3567;52.444;13.556;2023-04-07T09:12:40;101600.59;;;6.43;59.03
7052;BME280;3567;52.444;13.556;2023-04-07T09:15:06;101595.34;;;6.35;57.89
7052;BME280;3567;52.444;13.556;2023-04-07T09:17:32;101598.84;;;6.36;58.08
7052;BME280;3567;52.444;13.556;2023-04-07T09:19:58;101604.16;;;6.36;58.77
7052;BME280;3567;52.444;13.556;2023-04-07T09:22:38;101609.59;;;6.42;59.95
7052;BME280;3567;52.444;13.556;2023-04-07T09:25:13;101613.44;;;6.40;59.91
7052;BME280;3567;52.444;13.556;2023-04-07T09:27:39;101606.44;;;6.39;57.92
7052;BME280;3567;52.444;13.556;2023-04-07T09:30:14;101609.25;;;6.22;58.04
7052;BME280;3567;52.444;13.556;2023-04-07T09:32:40;101605.84;;;6.14;58.10
7052;BME280;3567;52.444;13.556;2023-04-07T09:35:06;101613.63;;;6.15;57.95
7052;BME280;3567;52.444;13.556;2023-04-07T09:37:31;101614.66;;;6.14;57.97
7052;BME280;3567;52.444;13.556;2023-04-07T09:39:57;101617.31;;;6.14;56.87
7052;BME280;3567;52.444;13.556;2023-04-07T09:42:23;101612.03;;;6.06;58.22
7052;BME280;3567;52.444;13.556;2023-04-07T09:44:49;101621.41;;;6.02;58.44
7052;BME280;3567;52.444;13.556;2023-04-07T09:47:15;101617.06;;;6.01;59.75
7052;BME280;3567;52.444;13.556;2023-04-07T09:49:51;101612.09;;;5.98;59.06
7052;BME280;3567;52.444;13.556;2023-04-07T09:52:18;101614.41;;;6.01;57.74
7052;BME280;3567;52.444;13.556;2023-04-07T09:54:45;101600.94;;;6.02;57.09
7052;BME280;3567;52.444;13.556;2023-04-07T09:57:11;101612.41;;;6.03;56.24
7052;BME280;3567;52.444;13.556;2023-04-07T09:59:39;101602.47;;;5.97;56.98
7052;BME280;3567;52.444;13.556;2023-04-07T10:02:07;101615.09;;;5.95;56.14
7052;BME280;3567;52.444;13.556;2023-04-07T10:04:32;101608.44;;;5.91;56.79
7052;BME280;3567;52.444;13.556;2023-04-07T10:06:58;101610.47;;;5.89;55.79
7052;BME280;3567;52.444;13.556;2023-04-07T10:09:27;101610.47;;;5.89;57.55
7052;BME280;3567;52.444;13.556;2023-04-07T10:11:54;101615.47;;;5.92;56.50
7052;BME280;3567;52.444;13.556;2023-04-07T10:14:23;101610.47;;;5.89;56.55
7052;BME280;3567;52.444;13.556;2023-04-07T10:16:51;101605.22;;;5.81;55.45
7052;BME280;3567;52.444;13.556;2023-04-07T10:19:18;101605.88;;;5.74;56.60
7052;BME280;3567;52.444;13.556;2023-04-07T10:21:43;101610.38;;;5.74;57.40
7052;BME280;3567;52.444;13.556;2023-04-07T10:27:03;101611.19;;;5.83;57.12
7052;BME280;3567;52.444;13.556;2023-04-07T10:29:40;101612.63;;;5.93;56.56
7052;BME280;3567;52.444;13.556;2023-04-07T10:32:06;101613.47;;;5.94;57.23
7052;BME280;3567;52.444;13.556;2023-04-07T10:34:54;101624.09;;;5.94;58.21
7052;BME280;3567;52.444;13.556;2023-04-07T10:37:22;101617.59;;;5.96;58.36
7052;BME280;3567;52.444;13.556;2023-04-07T10:39:49;101619.09;;;5.91;59.34
7052;BME280;3567;52.444;13.556;2023-04-07T10:42:45;101621.91;;;5.97;59.49
7052;BME280;3567;52.444;13.556;2023-04-07T10:45:13;101627.66;;;6.09;60.29
7052;BME280;3567;52.444;13.556;2023-04-07T10:50:23;101615.59;;;6.21;60.78
7052;BME280;3567;52.444;13.556;2023-04-07T10:53:08;101623.03;;;6.26;61.02
7052;BME280;3567;52.444;13.556;2023-04-07T10:55:45;101625.41;;;6.21;61.41
7052;BME280;3567;52.444;13.556;2023-04-07T11:03:40;101637.81;;;6.28;66.25
7052;BME280;3567;52.444;13.556;2023-04-07T11:08:45;101633.84;;;6.24;67.17
7052;BME280;3567;52.444;13.556;2023-04-07T11:11:16;101630.53;;;6.22;68.63
7052;BME280;3567;52.444;13.556;2023-04-07T11:13:49;101632.38;;;6.22;69.81
7052;BME280;3567;52.444;13.556;2023-04-07T11:16:16;101636.03;;;6.21;70.70
7052;BME280;3567;52.444;13.556;2023-04-07T11:18:43;101630.66;;;6.29;71.88
7052;BME280;3567;52.444;13.556;2023-04-07T11:21:08;101628.06;;;6.21;73.62
7052;BME280;3567;52.444;13.556;2023-04-07T11:23:42;101630.13;;;6.11;76.11
7052;BME280;3567;52.444;13.556;2023-04-07T11:26:09;101632.78;;;6.11;77.94
7052;BME280;3567;52.444;13.556;2023-04-07T11:28:44;101623.50;;;6.07;78.59
7052;BME280;3567;52.444;13.556;2023-04-07T11:31:11;101620.69;;;6.08;80.33
7052;BME280;3567;52.444;13.556;2023-04-07T11:33:38;101626.75;;;6.17;81.48
7052;BME280;3567;52.444;13.556;2023-04-07T11:36:05;101630.53;;;6.22;82.50
7052;BME280;3567;52.444;13.556;2023-04-07T11:38:36;101627.94;;;6.14;82.68
7052;BME280;3567;52.444;13.556;2023-04-07T11:41:10;101628.59;;;6.16;84.66
7052;BME280;3567;52.444;13.556;2023-04-07T11:43:35;101622.41;;;6.24;85.14
7052;BME280;3567;52.444;13.556;2023-04-07T11:48:32;101626.81;;;6.09;87.45
7052;BME280;3567;52.444;13.556;2023-04-07T11:50:59;101625.03;;;6.01;89.48
7052;BME280;3567;52.444;13.556;2023-04-07T11:53:32;101627.75;;;5.93;89.60
7052;BME280;3567;52.444;13.556;2023-04-07T11:58:24;101621.38;;;5.71;92.17
7052;BME280;3567;52.444;13.556;2023-04-07T12:00:56;101622.38;;;5.70;92.68
7052;BME280;3567;52.444;13.556;2023-04-07T12:03:22;101625.56;;;5.65;93.77
7052;BME280;3567;52.444;13.556;2023-04-07T12:05:48;101623.69;;;5.74;94.09
7052;BME280;3567;52.444;13.556;2023-04-07T12:08:14;101619.25;;;5.66;93.80
7052;BME280;3567;52.444;13.556;2023-04-07T12:10:41;101635.19;;;5.66;94.90
7052;BME280;3567;52.444;13.556;2023-04-07T12:13:07;101618.94;;;5.61;94.25
7052;BME280;3567;52.444;13.556;2023-04-07T12:15:34;101622.25;;;5.63;94.76
7052;BME280;3567;52.444;13.556;2023-04-07T12:18:01;101626.03;;;5.69;95.67
7052;BME280;3567;52.444;13.556;2023-04-07T12:20:27;101624.56;;;5.66;95.47
7052;BME280;3567;52.444;13.556;2023-04-07T12:22:53;101617.59;;;5.65;97.42
7052;BME280;3567;52.444;13.556;2023-04-07T12:25:18;101622.84;;;5.73;97.79
7052;BME280;3567;52.444;13.556;2023-04-07T12:27:43;101629.00;;;5.74;96.51
7052;BME280;3567;52.444;13.556;2023-04-07T12:30:09;101628.88;;;5.67;96.69
7052;BME280;3567;52.444;13.556;2023-04-07T12:32:35;101628.25;;;5.57;98.34
7052;BME280;3567;52.444;13.556;2023-04-07T12:35:01;101624.59;;;5.58;97.71
7052;BME280;3567;52.444;13.556;2023-04-07T12:37:27;101627.13;;;5.51;98.38
7052;BME280;3567;52.444;13.556;2023-04-07T12:39:52;101633.25;;;5.52;98.19
7052;BME280;3567;52.444;13.556;2023-04-07T12:42:18;101625.28;;;5.52;98.75
7052;BME280;3567;52.444;13.556;2023-04-07T12:44:43;101629.84;;;5.43;98.37
7052;BME280;3567;52.444;13.556;2023-04-07T12:47:09;101620.03;;;5.44;99.29
7052;BME280;3567;52.444;13.556;2023-04-07T12:49:36;101618.66;;;5.48;98.90
7052;BME280;3567;52.444;13.556;2023-04-07T12:52:01;101615.97;;;5.56;99.31
7052;BME280;3567;52.444;13.556;2023-04-07T12:54:27;101621.53;;;5.69;99.35
7052;BME280;3567;52.444;13.556;2023-04-07T12:56:53;101618.34;;;5.74;99.40
7052;BME280;3567;52.444;13.556;2023-04-07T12:59:18;101616.00;;;5.79;98.35
7052;BME280;3567;52.444;13.556;2023-04-07T13:01:43;101621.81;;;5.83;97.56
7052;BME280;3567;52.444;13.556;2023-04-07T13:04:09;101610.47;;;5.89;97.46
7052;BME280;3567;52.444;13.556;2023-04-07T13:06:35;101616.59;;;5.97;97.05
7052;BME280;3567;52.444;13.556;2023-04-07T13:09:00;101617.59;;;5.96;97.01
7052;BME280;3567;52.444;13.556;2023-04-07T13:11:25;101613.75;;;5.99;96.56
7052;BME280;3567;52.444;13.556;2023-04-07T13:13:51;101615.09;;;5.95;96.23
7052;BME280;3567;52.444;13.556;2023-04-07T13:16:16;101613.75;;;5.91;97.17
7052;BME280;3567;52.444;13.556;2023-04-07T13:18:42;101613.28;;;5.95;96.64
7052;BME280;3567;52.444;13.556;2023-04-07T13:21:08;101615.78;;;5.97;97.13
7052;BME280;3567;52.444;13.556;2023-04-07T13:23:34;101620.09;;;5.98;96.27
7052;BME280;3567;52.444;13.556;2023-04-07T13:25:59;101615.09;;;5.95;96.64